John F Kennedy International Airport
KJFK : now visible

Aeroporto :











RITROVATECI SU...

 
LOGIN :

Iscrizione | Disclaimer

   EN    FR    IT 

 









Sommario :    VFR   VFR Marginale   IFR   IFR Intensivo   IFR Molto Intensivo
Visibilità : 
Base nubi : 
>= 8 km
>= 3000ft
5 / 8 km
1000 / 3000 ft
1500m / 5 km
500 / 1000 ft
800 / 1500m
200 / 500 ft
< 800m
< 200 ft
Simboli :   Temporali  Nebbia  Neve Forte  Precipitazioni Forti  Vento > 20 kt






- Altitudine del aeroporto : 13 ft
- Codice IATA : JFK


KJFK - John F Kennedy International

ULTIMO METAR :
  • 020551Z 00000KT 10SM FEW015 FEW060 SCT130 BKN250 19/17 A2985 RMK AO2 SLP108 60001 T01940172 10228 20189 58004 $

METARs OBSOLETI :
  • 020451Z 14004KT 10SM BKN060 BKN110 BKN250 19/17 A2986 RMK AO2 SLP111 T01890172 402670189 $
  • 020351Z 11006KT 10SM SCT018 SCT040 BKN110 BKN250 19/17 A2987 RMK AO2 LTG DSNT E RAB0254E33 SLP116 OCNL LTGIC DSNT E CB DSNT E P0001 T01940167 $
  • 020318Z 10SM -RA BKN018 OVC110 21/18 A2988 RMK AO2 LTG DSNT E RAB0254 P0001 T02060178 $
  • 020251Z 00000KT 10SM FEW040 SCT080 BKN110 BKN250 22/20 A2986 RMK AO2 LTG DSNT NE AND E SLP112 OCNL LTGIC DSNT E CB DSNT E T02220200 50004 $

TAF KJFK
Valido dal 02 a 06 ore il 03 a 12 ore UTC


020528Z 0206/0312 VRB05KT P6SM FEW018 SCT035 BKN120
FM020800 33005KT P6SM SCT150 BKN250
TEMPO 0208/0212 SCT010
FM021300 VRB05KT P6SM SCT060 SCT250
FM021600 18008KT P6SM BKN060
FM030100 25004KT P6SM SCT060 BKN150
FM030500 30004KT P6SM SCT140
FIR KZNY / America del Nord



MetMap, La meteo Aeronautica in un colpo d'occhio ! - Copyright ORBIFLY Dicembre 2007 - Disclaimer

ORBIFLY MET'MAP TEAM :

Programmazione e sviluppo : Alexandra Zaïnal
Concezione : Baudouin d'Aumeries
Aiuto per la programmazione : Marc-Olivier Méhu
Supporto tecnico e logistico : Manuel Goepfert
Aiuto per la traduzione : Arnaldo La Scala

Contatto : metmap@orbifly.com




FONTI E CREDITI :

   NOAA       Earth
Advisory